createdAt,value
2023-02-17T00:02:34.277Z,69.77
2023-02-17T00:07:32.085Z,70.10
2023-02-17T00:12:28.880Z,70.97
2023-02-17T00:17:26.245Z,72.16
2023-02-17T00:22:23.762Z,72.15
2023-02-17T00:27:20.379Z,72.79
2023-02-17T00:32:17.125Z,72.52
2023-02-17T00:37:13.858Z,72.65
2023-02-17T00:42:11.191Z,72.45
2023-02-17T00:47:07.829Z,71.67
2023-02-17T00:52:04.493Z,70.99
2023-02-17T00:57:03.240Z,70.31
2023-02-17T01:02:02.773Z,70.52
2023-02-17T01:06:59.467Z,70.76
2023-02-17T01:11:56.292Z,69.77
2023-02-17T01:16:54.468Z,69.28
2023-02-17T01:21:52.454Z,70.00
2023-02-17T01:26:49.224Z,69.05
2023-02-17T01:31:46.070Z,70.19
2023-02-17T01:36:42.885Z,70.77
2023-02-17T01:41:43.342Z,72.09
2023-02-17T01:46:40.854Z,71.45
2023-02-17T01:51:38.565Z,71.37
2023-02-17T01:56:36.786Z,69.71
2023-02-17T02:01:35.346Z,70.16
2023-02-17T02:06:34.522Z,70.93
2023-02-17T02:11:31.289Z,69.89
2023-02-17T02:16:32.582Z,69.55
2023-02-17T02:21:49.465Z,68.91
2023-02-17T02:27:04.989Z,69.26
2023-02-17T02:32:09.527Z,67.19
2023-02-17T02:37:09.803Z,68.76
2023-02-17T02:42:08.991Z,68.72
2023-02-17T02:47:10.414Z,68.22
2023-02-17T02:52:13.795Z,67.55
2023-02-17T02:57:16.967Z,68.20
2023-02-17T03:02:19.361Z,67.63
2023-02-17T03:07:21.027Z,67.23
2023-02-17T03:12:18.630Z,66.81
2023-02-17T03:17:15.478Z,68.67
2023-02-17T03:22:15.198Z,70.33
2023-02-17T03:27:13.080Z,70.96
2023-02-17T03:32:09.993Z,70.85
2023-02-17T03:37:06.818Z,71.36
2023-02-17T03:42:03.455Z,70.68
2023-02-17T03:47:00.829Z,70.61
2023-02-17T03:51:59.250Z,70.25
2023-02-17T03:56:55.954Z,69.92
2023-02-17T04:01:52.647Z,68.44
2023-02-17T04:06:53.194Z,67.84
2023-02-17T04:11:49.992Z,67.65
2023-02-17T04:16:46.843Z,68.73
2023-02-17T04:21:44.733Z,68.78
2023-02-17T04:26:45.274Z,68.26
2023-02-17T04:31:42.171Z,68.23
2023-02-17T04:36:42.863Z,67.46
2023-02-17T04:41:40.858Z,66.51
2023-02-17T04:46:38.230Z,65.77
2023-02-17T04:51:34.965Z,65.53
2023-02-17T04:56:34.994Z,65.43
2023-02-17T05:01:31.775Z,66.01
2023-02-17T05:06:29.051Z,66.63
2023-02-17T05:11:25.759Z,66.25
2023-02-17T05:16:22.556Z,66.84
2023-02-17T05:21:19.374Z,67.63
2023-02-17T05:26:16.882Z,67.90
2023-02-17T05:31:13.834Z,67.93
2023-02-17T05:36:11.426Z,68.55
2023-02-17T05:41:08.047Z,68.21
2023-02-17T05:46:06.232Z,69.01
2023-02-17T05:51:05.891Z,68.92
2023-02-17T05:56:02.996Z,68.67
2023-02-17T06:00:59.749Z,69.30
2023-02-17T06:05:57.358Z,69.16
2023-02-17T06:10:54.313Z,70.19
2023-02-17T06:15:51.007Z,70.59
2023-02-17T06:20:47.778Z,71.42
2023-02-17T06:25:45.848Z,71.19
2023-02-17T06:30:42.795Z,72.34
2023-02-17T06:35:47.934Z,72.21
2023-02-17T06:40:45.456Z,72.27
2023-02-17T06:45:42.251Z,72.67
2023-02-17T06:50:39.337Z,72.76
2023-02-17T06:55:37.971Z,71.88
2023-02-17T07:00:36.519Z,72.10
2023-02-17T07:05:39.476Z,72.13
2023-02-17T07:10:37.121Z,71.58
2023-02-17T07:15:34.071Z,71.58
2023-02-17T07:20:31.994Z,71.46
2023-02-17T07:25:29.019Z,72.61
2023-02-17T07:30:26.092Z,72.55
2023-02-17T07:35:30.802Z,72.02
2023-02-17T07:40:34.002Z,71.02
2023-02-17T07:45:38.151Z,71.05
2023-02-17T07:50:41.116Z,70.90
2023-02-17T08:02:25.154Z,71.47
2023-02-17T08:07:41.685Z,71.69
2023-02-17T08:13:16.668Z,71.38
2023-02-17T08:18:37.631Z,70.84
2023-02-17T08:24:26.359Z,70.92
2023-02-17T08:29:35.604Z,70.76
2023-02-17T08:36:15.497Z,70.39
2023-02-17T08:42:54.044Z,69.40
2023-02-17T08:47:09.286Z,69.25
2023-02-17T08:58:36.460Z,68.73
2023-02-17T09:04:34.571Z,67.89
2023-02-17T09:10:32.568Z,66.89
2023-02-17T09:28:50.995Z,65.72
2023-02-17T09:34:53.395Z,66.01
2023-02-17T09:46:22.411Z,62.43
2023-02-17T09:51:27.405Z,62.74
2023-02-17T09:56:30.352Z,61.71
2023-02-17T10:01:29.754Z,60.02
2023-02-17T10:06:29.791Z,60.27
2023-02-17T10:11:30.446Z,58.58
2023-02-17T10:16:34.010Z,58.89
2023-02-17T10:21:33.129Z,57.66
2023-02-17T10:26:39.566Z,56.85
2023-02-17T10:31:43.017Z,57.55
2023-02-17T10:36:52.029Z,57.78
2023-02-17T10:41:51.669Z,56.03
2023-02-17T10:46:52.016Z,55.88
2023-02-17T10:51:56.047Z,56.19
2023-02-17T10:56:55.352Z,55.65
2023-02-17T11:01:52.331Z,55.67
2023-02-17T11:06:50.066Z,55.17
2023-02-17T11:11:53.182Z,55.27
2023-02-17T11:16:54.630Z,54.78
2023-02-17T11:21:51.939Z,53.94
2023-02-17T11:26:55.917Z,52.90
2023-02-17T11:32:08.940Z,52.12
2023-02-17T11:37:21.013Z,51.95
2023-02-17T11:42:46.611Z,51.95
2023-02-17T11:48:09.929Z,52.00
2023-02-17T11:53:21.420Z,52.46
2023-02-17T11:58:28.565Z,51.95
2023-02-17T12:03:54.324Z,49.13
2023-02-17T12:09:00.154Z,47.14
2023-02-17T12:14:15.682Z,47.78
2023-02-17T12:19:36.092Z,47.36
2023-02-17T12:24:56.376Z,47.48
2023-02-17T12:30:03.916Z,47.14
2023-02-17T12:35:04.856Z,46.27
2023-02-17T12:40:02.893Z,47.03
2023-02-17T12:45:02.528Z,47.83
2023-02-17T12:50:04.045Z,46.85
2023-02-17T12:55:05.851Z,47.49
2023-02-17T13:00:04.964Z,46.82
2023-02-17T13:05:04.889Z,46.68
2023-02-17T13:10:02.192Z,46.51
2023-02-17T13:15:00.036Z,45.23
2023-02-17T13:20:03.056Z,45.74
2023-02-17T13:25:02.931Z,46.03
2023-02-17T13:30:00.498Z,45.26
2023-02-17T13:35:05.468Z,44.86
2023-02-17T13:40:23.770Z,44.74
2023-02-17T13:45:23.432Z,44.27
2023-02-17T13:50:28.033Z,44.16
2023-02-17T13:55:26.146Z,43.98
2023-02-17T14:00:26.156Z,42.28
2023-02-17T14:05:26.349Z,41.59
2023-02-17T14:10:24.424Z,41.80
2023-02-17T14:15:25.094Z,41.95
2023-02-17T14:20:25.186Z,42.56
2023-02-17T14:25:26.604Z,43.83
2023-02-17T14:30:31.291Z,43.47
2023-02-17T14:35:29.136Z,43.59
2023-02-17T14:40:27.535Z,44.25
2023-02-17T14:45:24.304Z,44.76
2023-02-17T14:50:21.796Z,45.24
2023-02-17T14:55:25.278Z,45.07
2023-02-17T15:00:22.221Z,45.12
2023-02-17T15:05:19.249Z,43.57
2023-02-17T15:10:19.123Z,43.17
2023-02-17T15:15:18.138Z,41.50
2023-02-17T15:20:31.940Z,41.04
2023-02-17T15:25:31.721Z,40.58
2023-02-17T15:30:28.651Z,40.67
2023-02-17T15:35:27.130Z,40.39
2023-02-17T15:40:24.933Z,41.15
2023-02-17T15:45:27.867Z,41.45
2023-02-17T15:50:30.580Z,41.62
2023-02-17T15:55:28.413Z,42.08
2023-02-17T16:00:30.506Z,41.67
2023-02-17T16:05:28.753Z,42.66
2023-02-17T16:10:26.947Z,42.55
2023-02-17T16:15:28.296Z,42.73
2023-02-17T16:20:44.555Z,42.92
2023-02-17T16:25:42.817Z,42.52
2023-02-17T16:30:41.348Z,43.36
2023-02-17T16:35:38.169Z,44.09
2023-02-17T16:40:46.631Z,44.58
2023-02-17T16:45:51.313Z,45.08
2023-02-17T16:51:14.444Z,44.78
2023-02-17T16:56:26.675Z,44.32
2023-02-17T17:01:25.379Z,44.75
2023-02-17T17:06:25.030Z,44.79
2023-02-17T17:11:25.579Z,45.07
2023-02-17T17:16:23.352Z,45.25
2023-02-17T17:21:21.050Z,45.67
2023-02-17T17:26:24.615Z,45.85
2023-02-17T17:31:23.594Z,45.81
2023-02-17T17:36:23.972Z,45.84
2023-02-17T17:41:23.432Z,46.54
2023-02-17T17:46:25.771Z,46.61
2023-02-17T17:51:25.543Z,47.28
2023-02-17T17:56:23.331Z,47.18
2023-02-17T18:01:20.986Z,47.00
2023-02-17T18:06:19.458Z,46.60
2023-02-17T18:11:18.582Z,46.81
2023-02-17T18:16:16.053Z,47.47
2023-02-17T18:21:35.425Z,47.04
2023-02-17T18:26:33.874Z,47.28
2023-02-17T18:31:33.788Z,47.13
2023-02-17T18:36:30.766Z,46.91
2023-02-17T18:41:28.315Z,47.38
2023-02-17T18:46:31.014Z,47.44
2023-02-17T18:51:27.810Z,47.29
2023-02-17T18:56:28.695Z,47.21
2023-02-17T19:01:27.520Z,46.78
2023-02-17T19:06:24.903Z,47.08
2023-02-17T19:11:22.280Z,47.60
2023-02-17T19:16:20.200Z,47.25
2023-02-17T19:21:17.899Z,47.17
2023-02-17T19:26:15.167Z,46.74
2023-02-17T19:31:15.514Z,47.09
2023-02-17T19:36:13.356Z,47.05
2023-02-17T19:41:11.794Z,47.20
2023-02-17T19:46:13.279Z,47.18
2023-02-17T19:51:13.612Z,47.19
2023-02-17T19:56:12.755Z,47.42
2023-02-17T20:01:10.639Z,47.76
2023-02-17T20:06:08.457Z,47.97
2023-02-17T20:11:09.364Z,48.43
2023-02-17T20:16:10.364Z,48.65
2023-02-17T20:21:08.398Z,49.44
2023-02-17T20:26:06.542Z,49.60
2023-02-17T20:31:04.226Z,49.88
2023-02-17T20:36:01.855Z,49.76
2023-02-17T20:40:58.539Z,49.25
2023-02-17T20:45:55.585Z,49.41
2023-02-17T20:50:55.273Z,49.20
2023-02-17T20:55:58.942Z,49.16
2023-02-17T21:00:55.892Z,48.89
2023-02-17T21:05:52.756Z,48.98
2023-02-17T21:10:53.586Z,49.35
2023-02-17T21:15:55.881Z,49.26
2023-02-17T21:20:52.605Z,48.71
2023-02-17T21:25:49.302Z,48.57
2023-02-17T21:30:48.826Z,48.62
2023-02-17T21:35:46.254Z,48.39
2023-02-17T21:40:43.152Z,47.88
2023-02-17T21:45:39.801Z,48.28
2023-02-17T21:50:36.362Z,48.74
2023-02-17T21:55:34.406Z,48.80
2023-02-17T22:00:31.109Z,48.61
2023-02-17T22:05:29.864Z,48.87
2023-02-17T22:10:26.455Z,49.24
2023-02-17T22:15:23.964Z,49.21
2023-02-17T22:20:21.000Z,49.36
2023-02-17T22:25:20.026Z,49.24
2023-02-17T22:30:17.390Z,49.31
2023-02-17T22:35:14.750Z,49.76
2023-02-17T22:40:14.209Z,48.63
2023-02-17T22:45:11.224Z,48.49
2023-02-17T22:50:10.658Z,48.74
2023-02-17T22:55:08.184Z,48.44
2023-02-17T23:00:05.912Z,48.02
2023-02-17T23:05:02.721Z,48.46
2023-02-17T23:09:59.255Z,48.45
2023-02-17T23:14:56.474Z,48.64
2023-02-17T23:19:53.111Z,49.14
2023-02-17T23:24:53.096Z,49.45
2023-02-17T23:29:49.791Z,49.66
2023-02-17T23:34:47.404Z,49.98
2023-02-17T23:39:45.620Z,50.38
2023-02-17T23:44:42.544Z,51.71
2023-02-17T23:49:39.278Z,52.31
2023-02-17T23:54:37.412Z,51.93
2023-02-17T23:59:37.650Z,52.62
